North Eaton, Ohio
Current Conditions -  °F | °C
As of 6:53 AM on Tuesday 27 Jan 2015 (Local Time) from KLPR Reporting Station
Light Snow Light Snow  
Wind Chill:   Ceiling: 1300
Heat Index: 18°   Visibility: 4mi
Dew Point: 15°   Wind: 10mph
Humidity: 88%   Direction: 20°NNE
Pressure: 29.98"   Gusts: NA
Location:  41.2641°N, 82.0411°W
Report Text: KLPR 271153Z AUTO 02009KT 4SM -SN BR BKN013 BKN020 OVC030 M08/M09 A2998 RMK AO2 SNB09 SLP166 P0000 60000 T10781094 11067 21078 53014 TSNO
Loading
Personal Weather Stations






























Interactive Weather Map New forecast layout! Learn more

10-Day Weather Forecast

Advertisements
Track Severe Weather on mobile